sensor_id;sensor_type;location;lat;lon;timestamp;P1;durP1;ratioP1;P2;durP2;ratioP2
68275;SDS011;55106;51.438;-0.098;2023-01-08T00:00:45;21.70;;;3.53;;
68275;SDS011;55106;51.438;-0.098;2023-01-08T00:03:11;14.93;;;2.53;;
68275;SDS011;55106;51.438;-0.098;2023-01-08T00:05:36;16.47;;;2.67;;
68275;SDS011;55106;51.438;-0.098;2023-01-08T00:08:02;20.15;;;2.83;;
68275;SDS011;55106;51.438;-0.098;2023-01-08T00:10:28;12.37;;;2.40;;
68275;SDS011;55106;51.438;-0.098;2023-01-08T00:12:56;17.10;;;2.63;;
68275;SDS011;55106;51.438;-0.098;2023-01-08T00:15:21;15.75;;;3.00;;
68275;SDS011;55106;51.438;-0.098;2023-01-08T00:17:47;17.27;;;2.85;;
68275;SDS011;55106;51.438;-0.098;2023-01-08T00:20:13;19.33;;;3.07;;
68275;SDS011;55106;51.438;-0.098;2023-01-08T00:22:38;18.60;;;2.97;;
68275;SDS011;55106;51.438;-0.098;2023-01-08T00:25:04;20.97;;;4.50;;
68275;SDS011;55106;51.438;-0.098;2023-01-08T00:27:30;13.43;;;2.53;;
68275;SDS011;55106;51.438;-0.098;2023-01-08T00:29:55;24.30;;;2.80;;
68275;SDS011;55106;51.438;-0.098;2023-01-08T00:32:20;20.07;;;2.27;;
68275;SDS011;55106;51.438;-0.098;2023-01-08T00:34:46;19.37;;;3.10;;
68275;SDS011;55106;51.438;-0.098;2023-01-08T00:37:14;18.75;;;3.17;;
68275;SDS011;55106;51.438;-0.098;2023-01-08T00:39:43;19.17;;;2.42;;
68275;SDS011;55106;51.438;-0.098;2023-01-08T00:42:08;18.67;;;2.60;;
68275;SDS011;55106;51.438;-0.098;2023-01-08T00:44:35;13.00;;;2.20;;
68275;SDS011;55106;51.438;-0.098;2023-01-08T00:47:00;14.20;;;2.73;;
68275;SDS011;55106;51.438;-0.098;2023-01-08T00:49:25;17.70;;;2.80;;
68275;SDS011;55106;51.438;-0.098;2023-01-08T00:51:51;15.00;;;3.00;;
68275;SDS011;55106;51.438;-0.098;2023-01-08T00:54:16;14.60;;;2.10;;
68275;SDS011;55106;51.438;-0.098;2023-01-08T00:56:41;18.63;;;2.40;;
68275;SDS011;55106;51.438;-0.098;2023-01-08T00:59:07;16.83;;;2.57;;
68275;SDS011;55106;51.438;-0.098;2023-01-08T01:01:32;13.63;;;1.93;;
68275;SDS011;55106;51.438;-0.098;2023-01-08T01:03:57;14.33;;;2.50;;
68275;SDS011;55106;51.438;-0.098;2023-01-08T01:06:23;15.38;;;2.92;;
68275;SDS011;55106;51.438;-0.098;2023-01-08T01:08:48;15.17;;;2.43;;
68275;SDS011;55106;51.438;-0.098;2023-01-08T01:11:18;13.53;;;2.40;;
68275;SDS011;55106;51.438;-0.098;2023-01-08T01:13:47;16.38;;;2.40;;
68275;SDS011;55106;51.438;-0.098;2023-01-08T01:16:13;13.15;;;2.47;;
68275;SDS011;55106;51.438;-0.098;2023-01-08T01:18:38;16.80;;;2.37;;
68275;SDS011;55106;51.438;-0.098;2023-01-08T01:23:47;16.27;;;2.50;;
68275;SDS011;55106;51.438;-0.098;2023-01-08T01:26:16;16.87;;;2.50;;
68275;SDS011;55106;51.438;-0.098;2023-01-08T01:28:48;19.52;;;2.90;;
68275;SDS011;55106;51.438;-0.098;2023-01-08T01:31:15;18.25;;;3.30;;
68275;SDS011;55106;51.438;-0.098;2023-01-08T01:33:41;19.75;;;3.35;;
68275;SDS011;55106;51.438;-0.098;2023-01-08T01:36:06;17.23;;;3.37;;
68275;SDS011;55106;51.438;-0.098;2023-01-08T01:38:35;18.30;;;2.70;;
68275;SDS011;55106;51.438;-0.098;2023-01-08T01:41:00;29.80;;;3.80;;
68275;SDS011;55106;51.438;-0.098;2023-01-08T01:43:39;22.35;;;2.97;;
68275;SDS011;55106;51.438;-0.098;2023-01-08T01:46:15;25.17;;;2.83;;
68275;SDS011;55106;51.438;-0.098;2023-01-08T01:49:03;19.98;;;4.55;;
68275;SDS011;55106;51.438;-0.098;2023-01-08T01:51:34;30.50;;;3.05;;
68275;SDS011;55106;51.438;-0.098;2023-01-08T01:54:01;21.27;;;2.90;;
68275;SDS011;55106;51.438;-0.098;2023-01-08T01:56:29;21.30;;;2.67;;
68275;SDS011;55106;51.438;-0.098;2023-01-08T01:58:56;21.97;;;3.63;;
68275;SDS011;55106;51.438;-0.098;2023-01-08T02:01:22;24.15;;;2.85;;
68275;SDS011;55106;51.438;-0.098;2023-01-08T02:03:50;18.70;;;2.60;;
68275;SDS011;55106;51.438;-0.098;2023-01-08T02:19:58;25.57;;;3.20;;
68275;SDS011;55106;51.438;-0.098;2023-01-08T02:22:34;18.98;;;4.03;;
68275;SDS011;55106;51.438;-0.098;2023-01-08T02:25:21;17.85;;;2.55;;
68275;SDS011;55106;51.438;-0.098;2023-01-08T02:28:05;22.02;;;2.92;;
68275;SDS011;55106;51.438;-0.098;2023-01-08T02:30:36;16.83;;;2.30;;
68275;SDS011;55106;51.438;-0.098;2023-01-08T02:33:02;16.33;;;3.35;;
68275;SDS011;55106;51.438;-0.098;2023-01-08T02:35:41;20.87;;;2.80;;
68275;SDS011;55106;51.438;-0.098;2023-01-08T02:38:11;20.13;;;2.95;;
68275;SDS011;55106;51.438;-0.098;2023-01-08T02:40:49;16.45;;;2.65;;
68275;SDS011;55106;51.438;-0.098;2023-01-08T02:43:29;15.52;;;2.55;;
68275;SDS011;55106;51.438;-0.098;2023-01-08T02:46:07;13.77;;;2.17;;
68275;SDS011;55106;51.438;-0.098;2023-01-08T02:48:58;17.38;;;2.35;;
68275;SDS011;55106;51.438;-0.098;2023-01-08T02:51:30;13.45;;;2.20;;
68275;SDS011;55106;51.438;-0.098;2023-01-08T02:54:01;15.15;;;2.53;;
68275;SDS011;55106;51.438;-0.098;2023-01-08T02:56:30;12.40;;;2.00;;
68275;SDS011;55106;51.438;-0.098;2023-01-08T02:58:59;18.77;;;2.90;;
68275;SDS011;55106;51.438;-0.098;2023-01-08T03:01:27;15.82;;;2.42;;
68275;SDS011;55106;51.438;-0.098;2023-01-08T03:03:55;10.13;;;1.90;;
68275;SDS011;55106;51.438;-0.098;2023-01-08T03:06:22;12.23;;;2.33;;
68275;SDS011;55106;51.438;-0.098;2023-01-08T03:08:50;20.77;;;2.90;;
68275;SDS011;55106;51.438;-0.098;2023-01-08T03:11:21;17.17;;;2.07;;
68275;SDS011;55106;51.438;-0.098;2023-01-08T03:19:04;19.48;;;3.03;;
68275;SDS011;55106;51.438;-0.098;2023-01-08T03:21:31;23.05;;;3.10;;
68275;SDS011;55106;51.438;-0.098;2023-01-08T03:23:59;12.57;;;2.77;;
68275;SDS011;55106;51.438;-0.098;2023-01-08T03:26:26;17.98;;;2.22;;
68275;SDS011;55106;51.438;-0.098;2023-01-08T03:28:52;24.92;;;2.35;;
68275;SDS011;55106;51.438;-0.098;2023-01-08T03:31:20;17.20;;;2.28;;
68275;SDS011;55106;51.438;-0.098;2023-01-08T03:33:47;13.02;;;2.20;;
68275;SDS011;55106;51.438;-0.098;2023-01-08T03:36:14;12.40;;;2.97;;
68275;SDS011;55106;51.438;-0.098;2023-01-08T03:38:53;16.10;;;2.47;;
68275;SDS011;55106;51.438;-0.098;2023-01-08T03:41:23;14.55;;;2.40;;
68275;SDS011;55106;51.438;-0.098;2023-01-08T03:43:51;17.33;;;3.00;;
68275;SDS011;55106;51.438;-0.098;2023-01-08T03:46:21;13.93;;;2.50;;
68275;SDS011;55106;51.438;-0.098;2023-01-08T03:48:52;14.18;;;2.92;;
68275;SDS011;55106;51.438;-0.098;2023-01-08T03:51:19;18.10;;;2.78;;
68275;SDS011;55106;51.438;-0.098;2023-01-08T03:53:45;17.40;;;3.17;;
68275;SDS011;55106;51.438;-0.098;2023-01-08T03:56:11;17.45;;;2.55;;
68275;SDS011;55106;51.438;-0.098;2023-01-08T03:58:36;20.90;;;3.30;;
68275;SDS011;55106;51.438;-0.098;2023-01-08T04:01:02;24.30;;;3.50;;
68275;SDS011;55106;51.438;-0.098;2023-01-08T04:03:27;16.67;;;2.92;;
68275;SDS011;55106;51.438;-0.098;2023-01-08T04:05:53;11.23;;;2.40;;
68275;SDS011;55106;51.438;-0.098;2023-01-08T04:08:18;11.87;;;2.27;;
68275;SDS011;55106;51.438;-0.098;2023-01-08T04:10:43;10.37;;;2.40;;
68275;SDS011;55106;51.438;-0.098;2023-01-08T04:13:09;12.27;;;1.80;;
68275;SDS011;55106;51.438;-0.098;2023-01-08T04:15:34;12.18;;;2.83;;
68275;SDS011;55106;51.438;-0.098;2023-01-08T04:17:59;11.63;;;2.13;;
68275;SDS011;55106;51.438;-0.098;2023-01-08T04:20:25;14.67;;;1.93;;
68275;SDS011;55106;51.438;-0.098;2023-01-08T04:22:50;8.63;;;2.37;;
68275;SDS011;55106;51.438;-0.098;2023-01-08T04:25:16;13.97;;;1.83;;
68275;SDS011;55106;51.438;-0.098;2023-01-08T04:27:41;13.57;;;2.22;;
68275;SDS011;55106;51.438;-0.098;2023-01-08T04:30:07;15.20;;;2.53;;
68275;SDS011;55106;51.438;-0.098;2023-01-08T04:32:33;15.55;;;3.33;;
68275;SDS011;55106;51.438;-0.098;2023-01-08T04:34:58;17.60;;;2.57;;
68275;SDS011;55106;51.438;-0.098;2023-01-08T04:37:23;13.90;;;2.90;;
68275;SDS011;55106;51.438;-0.098;2023-01-08T04:39:49;13.57;;;1.90;;
68275;SDS011;55106;51.438;-0.098;2023-01-08T04:42:14;11.00;;;2.10;;
68275;SDS011;55106;51.438;-0.098;2023-01-08T04:44:39;13.60;;;2.22;;
68275;SDS011;55106;51.438;-0.098;2023-01-08T04:47:05;7.17;;;1.70;;
68275;SDS011;55106;51.438;-0.098;2023-01-08T04:49:30;7.13;;;1.80;;
68275;SDS011;55106;51.438;-0.098;2023-01-08T04:51:56;8.70;;;1.57;;
68275;SDS011;55106;51.438;-0.098;2023-01-08T04:54:21;7.53;;;1.60;;
68275;SDS011;55106;51.438;-0.098;2023-01-08T04:56:48;10.50;;;1.57;;
68275;SDS011;55106;51.438;-0.098;2023-01-08T04:59:15;7.30;;;1.00;;
68275;SDS011;55106;51.438;-0.098;2023-01-08T05:01:41;5.73;;;1.17;;
68275;SDS011;55106;51.438;-0.098;2023-01-08T05:04:06;8.30;;;1.60;;
68275;SDS011;55106;51.438;-0.098;2023-01-08T05:06:32;5.63;;;1.43;;
68275;SDS011;55106;51.438;-0.098;2023-01-08T05:08:57;8.10;;;1.70;;
68275;SDS011;55106;51.438;-0.098;2023-01-08T05:11:23;7.03;;;1.60;;
68275;SDS011;55106;51.438;-0.098;2023-01-08T05:13:49;7.57;;;1.50;;
68275;SDS011;55106;51.438;-0.098;2023-01-08T05:16:16;6.87;;;1.40;;
68275;SDS011;55106;51.438;-0.098;2023-01-08T05:18:42;6.82;;;1.30;;
68275;SDS011;55106;51.438;-0.098;2023-01-08T05:21:08;5.63;;;1.23;;
68275;SDS011;55106;51.438;-0.098;2023-01-08T05:23:33;8.20;;;1.80;;
68275;SDS011;55106;51.438;-0.098;2023-01-08T05:25:59;6.20;;;1.50;;
68275;SDS011;55106;51.438;-0.098;2023-01-08T05:28:26;5.47;;;1.40;;
68275;SDS011;55106;51.438;-0.098;2023-01-08T05:30:52;8.20;;;1.70;;
68275;SDS011;55106;51.438;-0.098;2023-01-08T05:33:18;5.83;;;1.63;;
68275;SDS011;55106;51.438;-0.098;2023-01-08T05:35:43;7.75;;;1.40;;
68275;SDS011;55106;51.438;-0.098;2023-01-08T05:38:09;8.50;;;1.50;;
68275;SDS011;55106;51.438;-0.098;2023-01-08T05:40:34;5.20;;;1.10;;
68275;SDS011;55106;51.438;-0.098;2023-01-08T05:43:00;6.22;;;1.42;;
68275;SDS011;55106;51.438;-0.098;2023-01-08T05:45:25;7.70;;;1.30;;
68275;SDS011;55106;51.438;-0.098;2023-01-08T05:47:51;4.15;;;1.42;;
68275;SDS011;55106;51.438;-0.098;2023-01-08T05:50:16;5.00;;;1.20;;
68275;SDS011;55106;51.438;-0.098;2023-01-08T05:52:42;4.27;;;1.30;;
68275;SDS011;55106;51.438;-0.098;2023-01-08T05:55:07;5.40;;;1.40;;
68275;SDS011;55106;51.438;-0.098;2023-01-08T05:57:33;9.75;;;1.20;;
68275;SDS011;55106;51.438;-0.098;2023-01-08T05:59:58;6.07;;;1.20;;
68275;SDS011;55106;51.438;-0.098;2023-01-08T06:02:24;5.27;;;1.10;;
68275;SDS011;55106;51.438;-0.098;2023-01-08T06:04:49;6.50;;;1.30;;
68275;SDS011;55106;51.438;-0.098;2023-01-08T06:07:15;5.67;;;1.20;;
68275;SDS011;55106;51.438;-0.098;2023-01-08T06:09:40;5.77;;;1.10;;
68275;SDS011;55106;51.438;-0.098;2023-01-08T06:12:05;6.83;;;1.50;;
68275;SDS011;55106;51.438;-0.098;2023-01-08T06:14:31;6.07;;;1.38;;
68275;SDS011;55106;51.438;-0.098;2023-01-08T06:16:56;5.43;;;1.30;;
68275;SDS011;55106;51.438;-0.098;2023-01-08T06:19:22;5.83;;;1.17;;
68275;SDS011;55106;51.438;-0.098;2023-01-08T06:21:48;5.78;;;1.10;;
68275;SDS011;55106;51.438;-0.098;2023-01-08T06:24:13;6.77;;;1.33;;
68275;SDS011;55106;51.438;-0.098;2023-01-08T06:26:38;5.97;;;1.30;;
68275;SDS011;55106;51.438;-0.098;2023-01-08T06:29:04;7.13;;;1.33;;
68275;SDS011;55106;51.438;-0.098;2023-01-08T06:31:29;7.20;;;1.57;;
68275;SDS011;55106;51.438;-0.098;2023-01-08T06:33:55;7.80;;;1.40;;
68275;SDS011;55106;51.438;-0.098;2023-01-08T06:36:20;9.00;;;1.43;;
68275;SDS011;55106;51.438;-0.098;2023-01-08T06:38:45;8.07;;;1.40;;
68275;SDS011;55106;51.438;-0.098;2023-01-08T06:41:11;7.83;;;1.40;;
68275;SDS011;55106;51.438;-0.098;2023-01-08T06:43:36;8.53;;;1.63;;
68275;SDS011;55106;51.438;-0.098;2023-01-08T06:46:03;11.75;;;1.52;;
68275;SDS011;55106;51.438;-0.098;2023-01-08T06:48:29;6.85;;;1.33;;
68275;SDS011;55106;51.438;-0.098;2023-01-08T06:50:54;8.93;;;1.73;;
68275;SDS011;55106;51.438;-0.098;2023-01-08T06:53:23;6.97;;;1.45;;
68275;SDS011;55106;51.438;-0.098;2023-01-08T06:55:48;7.90;;;1.73;;
68275;SDS011;55106;51.438;-0.098;2023-01-08T06:58:20;9.90;;;1.60;;
68275;SDS011;55106;51.438;-0.098;2023-01-08T07:00:45;7.60;;;1.43;;
68275;SDS011;55106;51.438;-0.098;2023-01-08T07:03:10;9.90;;;1.60;;
68275;SDS011;55106;51.438;-0.098;2023-01-08T07:05:36;13.10;;;1.97;;
68275;SDS011;55106;51.438;-0.098;2023-01-08T07:08:01;16.20;;;2.07;;
68275;SDS011;55106;51.438;-0.098;2023-01-08T07:10:26;10.07;;;1.95;;
68275;SDS011;55106;51.438;-0.098;2023-01-08T07:12:52;6.87;;;1.43;;
68275;SDS011;55106;51.438;-0.098;2023-01-08T07:15:17;9.30;;;1.67;;
68275;SDS011;55106;51.438;-0.098;2023-01-08T07:17:42;15.30;;;2.20;;
68275;SDS011;55106;51.438;-0.098;2023-01-08T07:20:08;10.87;;;2.13;;
68275;SDS011;55106;51.438;-0.098;2023-01-08T07:22:34;11.02;;;2.22;;
68275;SDS011;55106;51.438;-0.098;2023-01-08T07:24:59;15.33;;;1.90;;
68275;SDS011;55106;51.438;-0.098;2023-01-08T07:27:25;11.50;;;1.63;;
68275;SDS011;55106;51.438;-0.098;2023-01-08T07:29:50;13.17;;;3.10;;
68275;SDS011;55106;51.438;-0.098;2023-01-08T07:32:15;12.73;;;1.60;;
68275;SDS011;55106;51.438;-0.098;2023-01-08T07:34:41;12.30;;;1.90;;
68275;SDS011;55106;51.438;-0.098;2023-01-08T07:37:06;10.07;;;1.87;;
68275;SDS011;55106;51.438;-0.098;2023-01-08T07:39:32;11.33;;;2.70;;
68275;SDS011;55106;51.438;-0.098;2023-01-08T07:41:58;7.80;;;1.48;;
68275;SDS011;55106;51.438;-0.098;2023-01-08T07:44:23;6.80;;;1.63;;
68275;SDS011;55106;51.438;-0.098;2023-01-08T07:46:48;10.65;;;1.50;;
68275;SDS011;55106;51.438;-0.098;2023-01-08T07:49:14;8.80;;;1.67;;
68275;SDS011;55106;51.438;-0.098;2023-01-08T07:51:39;9.30;;;1.63;;
68275;SDS011;55106;51.438;-0.098;2023-01-08T07:54:05;10.27;;;2.50;;
68275;SDS011;55106;51.438;-0.098;2023-01-08T07:56:30;11.50;;;1.80;;
68275;SDS011;55106;51.438;-0.098;2023-01-08T07:58:55;8.45;;;1.95;;
68275;SDS011;55106;51.438;-0.098;2023-01-08T08:01:21;11.57;;;1.73;;
68275;SDS011;55106;51.438;-0.098;2023-01-08T08:03:46;11.27;;;1.90;;
68275;SDS011;55106;51.438;-0.098;2023-01-08T08:06:12;7.67;;;1.50;;
68275;SDS011;55106;51.438;-0.098;2023-01-08T08:08:38;8.30;;;1.75;;
68275;SDS011;55106;51.438;-0.098;2023-01-08T08:11:03;10.57;;;1.80;;
68275;SDS011;55106;51.438;-0.098;2023-01-08T08:13:32;8.65;;;1.63;;
68275;SDS011;55106;51.438;-0.098;2023-01-08T08:16:01;14.73;;;2.03;;
68275;SDS011;55106;51.438;-0.098;2023-01-08T08:18:27;10.65;;;2.05;;
68275;SDS011;55106;51.438;-0.098;2023-01-08T08:20:53;15.07;;;2.53;;
68275;SDS011;55106;51.438;-0.098;2023-01-08T08:23:18;8.60;;;1.43;;
68275;SDS011;55106;51.438;-0.098;2023-01-08T08:25:44;10.27;;;1.77;;
68275;SDS011;55106;51.438;-0.098;2023-01-08T08:28:10;14.30;;;2.30;;
68275;SDS011;55106;51.438;-0.098;2023-01-08T08:30:36;8.82;;;1.75;;
68275;SDS011;55106;51.438;-0.098;2023-01-08T08:33:02;10.30;;;1.90;;
68275;SDS011;55106;51.438;-0.098;2023-01-08T08:35:30;9.85;;;1.90;;
68275;SDS011;55106;51.438;-0.098;2023-01-08T08:37:56;10.20;;;1.90;;
68275;SDS011;55106;51.438;-0.098;2023-01-08T08:40:23;12.00;;;1.67;;
68275;SDS011;55106;51.438;-0.098;2023-01-08T08:42:54;13.38;;;2.20;;
68275;SDS011;55106;51.438;-0.098;2023-01-08T08:45:22;10.18;;;2.00;;
68275;SDS011;55106;51.438;-0.098;2023-01-08T08:47:48;10.57;;;2.00;;
68275;SDS011;55106;51.438;-0.098;2023-01-08T08:50:13;9.37;;;2.03;;
68275;SDS011;55106;51.438;-0.098;2023-01-08T08:52:39;10.68;;;2.50;;
68275;SDS011;55106;51.438;-0.098;2023-01-08T08:55:04;11.40;;;1.80;;
68275;SDS011;55106;51.438;-0.098;2023-01-08T08:57:30;10.30;;;1.80;;
68275;SDS011;55106;51.438;-0.098;2023-01-08T08:59:56;10.47;;;2.10;;
68275;SDS011;55106;51.438;-0.098;2023-01-08T09:02:21;13.27;;;2.17;;
68275;SDS011;55106;51.438;-0.098;2023-01-08T09:04:47;8.87;;;2.00;;
68275;SDS011;55106;51.438;-0.098;2023-01-08T09:07:12;16.33;;;2.37;;
68275;SDS011;55106;51.438;-0.098;2023-01-08T09:09:37;11.17;;;1.93;;
68275;SDS011;55106;51.438;-0.098;2023-01-08T09:12:03;8.75;;;2.08;;
68275;SDS011;55106;51.438;-0.098;2023-01-08T09:14:28;10.70;;;2.40;;
68275;SDS011;55106;51.438;-0.098;2023-01-08T09:16:54;9.67;;;2.20;;
68275;SDS011;55106;51.438;-0.098;2023-01-08T09:19:19;19.47;;;2.60;;
68275;SDS011;55106;51.438;-0.098;2023-01-08T09:21:44;12.03;;;2.07;;
68275;SDS011;55106;51.438;-0.098;2023-01-08T09:24:10;14.82;;;2.78;;
68275;SDS011;55106;51.438;-0.098;2023-01-08T09:26:36;13.70;;;2.40;;
68275;SDS011;55106;51.438;-0.098;2023-01-08T09:29:01;15.47;;;2.50;;
68275;SDS011;55106;51.438;-0.098;2023-01-08T09:31:27;10.73;;;2.00;;
68275;SDS011;55106;51.438;-0.098;2023-01-08T09:33:52;14.37;;;2.00;;
68275;SDS011;55106;51.438;-0.098;2023-01-08T09:36:18;20.50;;;2.30;;
68275;SDS011;55106;51.438;-0.098;2023-01-08T09:38:43;11.85;;;1.90;;
68275;SDS011;55106;51.438;-0.098;2023-01-08T09:43:43;13.90;;;2.47;;
68275;SDS011;55106;51.438;-0.098;2023-01-08T09:46:11;18.27;;;2.10;;
68275;SDS011;55106;51.438;-0.098;2023-01-08T09:48:37;11.27;;;1.80;;
68275;SDS011;55106;51.438;-0.098;2023-01-08T09:51:08;13.47;;;1.97;;
68275;SDS011;55106;51.438;-0.098;2023-01-08T09:53:39;14.65;;;2.17;;
68275;SDS011;55106;51.438;-0.098;2023-01-08T09:56:09;18.20;;;2.20;;
68275;SDS011;55106;51.438;-0.098;2023-01-08T09:58:45;12.70;;;2.03;;
68275;SDS011;55106;51.438;-0.098;2023-01-08T10:01:13;11.32;;;2.20;;
68275;SDS011;55106;51.438;-0.098;2023-01-08T10:03:45;11.27;;;2.47;;
68275;SDS011;55106;51.438;-0.098;2023-01-08T10:06:14;19.45;;;2.40;;
68275;SDS011;55106;51.438;-0.098;2023-01-08T10:08:41;13.70;;;2.20;;
68275;SDS011;55106;51.438;-0.098;2023-01-08T10:11:07;16.17;;;2.90;;
68275;SDS011;55106;51.438;-0.098;2023-01-08T10:13:35;13.25;;;2.08;;
68275;SDS011;55106;51.438;-0.098;2023-01-08T10:16:06;12.77;;;2.42;;
68275;SDS011;55106;51.438;-0.098;2023-01-08T10:18:35;15.57;;;2.20;;
68275;SDS011;55106;51.438;-0.098;2023-01-08T10:21:01;17.73;;;2.90;;
68275;SDS011;55106;51.438;-0.098;2023-01-08T10:23:26;13.38;;;3.08;;
68275;SDS011;55106;51.438;-0.098;2023-01-08T10:25:56;13.80;;;2.50;;
68275;SDS011;55106;51.438;-0.098;2023-01-08T10:28:24;13.98;;;2.42;;
68275;SDS011;55106;51.438;-0.098;2023-01-08T10:30:52;13.18;;;2.75;;
68275;SDS011;55106;51.438;-0.098;2023-01-08T10:33:23;14.32;;;2.60;;
68275;SDS011;55106;51.438;-0.098;2023-01-08T10:35:56;12.40;;;2.07;;
68275;SDS011;55106;51.438;-0.098;2023-01-08T10:38:34;9.85;;;2.40;;
68275;SDS011;55106;51.438;-0.098;2023-01-08T10:41:04;15.95;;;2.35;;
68275;SDS011;55106;51.438;-0.098;2023-01-08T10:43:35;18.17;;;2.20;;
68275;SDS011;55106;51.438;-0.098;2023-01-08T10:46:12;14.18;;;2.65;;
68275;SDS011;55106;51.438;-0.098;2023-01-08T10:48:46;14.53;;;2.77;;
68275;SDS011;55106;51.438;-0.098;2023-01-08T10:51:23;15.80;;;2.13;;
68275;SDS011;55106;51.438;-0.098;2023-01-08T10:53:50;12.52;;;2.63;;
68275;SDS011;55106;51.438;-0.098;2023-01-08T10:56:23;18.45;;;2.25;;
68275;SDS011;55106;51.438;-0.098;2023-01-08T10:58:49;13.82;;;1.95;;
68275;SDS011;55106;51.438;-0.098;2023-01-08T11:01:17;13.43;;;2.03;;
68275;SDS011;55106;51.438;-0.098;2023-01-08T11:03:56;10.73;;;2.83;;
68275;SDS011;55106;51.438;-0.098;2023-01-08T11:06:27;11.18;;;2.00;;
68275;SDS011;55106;51.438;-0.098;2023-01-08T11:08:56;9.98;;;2.28;;
68275;SDS011;55106;51.438;-0.098;2023-01-08T11:11:23;12.70;;;2.15;;
68275;SDS011;55106;51.438;-0.098;2023-01-08T11:13:59;12.93;;;2.30;;
68275;SDS011;55106;51.438;-0.098;2023-01-08T11:16:45;18.23;;;3.33;;
68275;SDS011;55106;51.438;-0.098;2023-01-08T11:19:15;15.20;;;2.50;;
68275;SDS011;55106;51.438;-0.098;2023-01-08T11:21:53;17.05;;;2.13;;
68275;SDS011;55106;51.438;-0.098;2023-01-08T11:24:32;14.57;;;2.10;;
68275;SDS011;55106;51.438;-0.098;2023-01-08T11:27:02;13.00;;;2.07;;
68275;SDS011;55106;51.438;-0.098;2023-01-08T11:37:49;9.32;;;2.20;;
68275;SDS011;55106;51.438;-0.098;2023-01-08T11:40:20;11.67;;;2.47;;
68275;SDS011;55106;51.438;-0.098;2023-01-08T11:53:42;17.03;;;3.37;;
68275;SDS011;55106;51.438;-0.098;2023-01-08T11:59:04;20.65;;;2.72;;
68275;SDS011;55106;51.438;-0.098;2023-01-08T12:10:35;11.57;;;2.05;;
68275;SDS011;55106;51.438;-0.098;2023-01-08T12:17:01;10.32;;;2.00;;
68275;SDS011;55106;51.438;-0.098;2023-01-08T12:33:02;12.00;;;2.58;;
68275;SDS011;55106;51.438;-0.098;2023-01-08T12:35:39;13.07;;;1.70;;
68275;SDS011;55106;51.438;-0.098;2023-01-08T12:38:32;13.73;;;2.60;;
68275;SDS011;55106;51.438;-0.098;2023-01-08T12:41:08;12.95;;;2.38;;
68275;SDS011;55106;51.438;-0.098;2023-01-08T12:46:04;12.70;;;1.88;;
68275;SDS011;55106;51.438;-0.098;2023-01-08T12:48:31;17.47;;;2.50;;
68275;SDS011;55106;51.438;-0.098;2023-01-08T12:56:32;17.88;;;2.38;;
68275;SDS011;55106;51.438;-0.098;2023-01-08T13:04:45;10.80;;;2.40;;
68275;SDS011;55106;51.438;-0.098;2023-01-08T13:07:17;14.75;;;2.30;;
68275;SDS011;55106;51.438;-0.098;2023-01-08T13:09:45;22.88;;;2.67;;
68275;SDS011;55106;51.438;-0.098;2023-01-08T13:12:18;12.40;;;2.53;;
68275;SDS011;55106;51.438;-0.098;2023-01-08T13:14:54;13.83;;;2.17;;
68275;SDS011;55106;51.438;-0.098;2023-01-08T13:17:21;18.30;;;2.67;;
68275;SDS011;55106;51.438;-0.098;2023-01-08T13:19:58;14.23;;;2.08;;
68275;SDS011;55106;51.438;-0.098;2023-01-08T13:27:37;13.10;;;2.80;;
68275;SDS011;55106;51.438;-0.098;2023-01-08T13:30:02;12.57;;;2.53;;
68275;SDS011;55106;51.438;-0.098;2023-01-08T13:32:48;7.60;;;1.50;;
68275;SDS011;55106;51.438;-0.098;2023-01-08T13:37:38;6.83;;;1.10;;
68275;SDS011;55106;51.438;-0.098;2023-01-08T13:40:33;6.87;;;1.20;;
68275;SDS011;55106;51.438;-0.098;2023-01-08T13:43:14;5.22;;;1.10;;
68275;SDS011;55106;51.438;-0.098;2023-01-08T13:45:45;5.70;;;1.30;;
68275;SDS011;55106;51.438;-0.098;2023-01-08T13:48:22;7.25;;;1.63;;
68275;SDS011;55106;51.438;-0.098;2023-01-08T13:50:49;11.15;;;2.13;;
68275;SDS011;55106;51.438;-0.098;2023-01-08T13:53:15;6.67;;;1.30;;
68275;SDS011;55106;51.438;-0.098;2023-01-08T13:55:45;7.10;;;1.48;;
68275;SDS011;55106;51.438;-0.098;2023-01-08T13:58:28;7.13;;;1.67;;
68275;SDS011;55106;51.438;-0.098;2023-01-08T14:00:58;8.30;;;1.42;;
68275;SDS011;55106;51.438;-0.098;2023-01-08T14:11:15;12.77;;;2.45;;
68275;SDS011;55106;51.438;-0.098;2023-01-08T14:13:42;12.77;;;2.50;;
68275;SDS011;55106;51.438;-0.098;2023-01-08T14:16:10;17.20;;;2.55;;
68275;SDS011;55106;51.438;-0.098;2023-01-08T14:18:41;13.68;;;2.50;;
68275;SDS011;55106;51.438;-0.098;2023-01-08T14:21:07;8.13;;;1.95;;
68275;SDS011;55106;51.438;-0.098;2023-01-08T14:23:35;13.73;;;2.67;;
68275;SDS011;55106;51.438;-0.098;2023-01-08T14:26:04;14.02;;;1.98;;
68275;SDS011;55106;51.438;-0.098;2023-01-08T14:28:32;12.27;;;2.47;;
68275;SDS011;55106;51.438;-0.098;2023-01-08T14:30:58;15.43;;;2.30;;
68275;SDS011;55106;51.438;-0.098;2023-01-08T14:33:36;8.83;;;2.17;;
68275;SDS011;55106;51.438;-0.098;2023-01-08T14:36:02;12.13;;;2.13;;
68275;SDS011;55106;51.438;-0.098;2023-01-08T14:38:31;11.05;;;2.60;;
68275;SDS011;55106;51.438;-0.098;2023-01-08T14:41:03;10.77;;;2.17;;
68275;SDS011;55106;51.438;-0.098;2023-01-08T14:43:33;13.98;;;2.38;;
68275;SDS011;55106;51.438;-0.098;2023-01-08T14:46:04;7.30;;;1.83;;
68275;SDS011;55106;51.438;-0.098;2023-01-08T14:48:52;10.00;;;2.63;;
68275;SDS011;55106;51.438;-0.098;2023-01-08T14:51:20;8.20;;;2.60;;
68275;SDS011;55106;51.438;-0.098;2023-01-08T14:53:49;7.18;;;1.70;;
68275;SDS011;55106;51.438;-0.098;2023-01-08T14:56:18;7.30;;;2.13;;
68275;SDS011;55106;51.438;-0.098;2023-01-08T14:58:48;8.43;;;1.90;;
68275;SDS011;55106;51.438;-0.098;2023-01-08T15:01:32;8.38;;;2.00;;
68275;SDS011;55106;51.438;-0.098;2023-01-08T15:04:06;9.97;;;2.37;;
68275;SDS011;55106;51.438;-0.098;2023-01-08T15:06:42;8.52;;;2.90;;
68275;SDS011;55106;51.438;-0.098;2023-01-08T15:11:55;6.45;;;2.15;;
68275;SDS011;55106;51.438;-0.098;2023-01-08T15:14:22;5.35;;;2.28;;
68275;SDS011;55106;51.438;-0.098;2023-01-08T15:16:49;11.05;;;4.47;;
68275;SDS011;55106;51.438;-0.098;2023-01-08T15:19:19;14.65;;;5.70;;
68275;SDS011;55106;51.438;-0.098;2023-01-08T15:21:50;8.63;;;3.50;;
68275;SDS011;55106;51.438;-0.098;2023-01-08T15:26:48;8.70;;;2.10;;
68275;SDS011;55106;51.438;-0.098;2023-01-08T15:29:18;10.50;;;3.23;;
68275;SDS011;55106;51.438;-0.098;2023-01-08T15:31:47;11.10;;;3.95;;
68275;SDS011;55106;51.438;-0.098;2023-01-08T15:34:13;9.73;;;3.97;;
68275;SDS011;55106;51.438;-0.098;2023-01-08T15:36:42;8.18;;;3.20;;
68275;SDS011;55106;51.438;-0.098;2023-01-08T15:39:08;7.17;;;2.50;;
68275;SDS011;55106;51.438;-0.098;2023-01-08T15:41:35;7.00;;;2.30;;
68275;SDS011;55106;51.438;-0.098;2023-01-08T15:44:21;6.10;;;1.45;;
68275;SDS011;55106;51.438;-0.098;2023-01-08T15:46:50;6.50;;;2.00;;
68275;SDS011;55106;51.438;-0.098;2023-01-08T15:49:16;5.55;;;1.98;;
68275;SDS011;55106;51.438;-0.098;2023-01-08T15:51:42;7.03;;;1.90;;
68275;SDS011;55106;51.438;-0.098;2023-01-08T15:54:10;6.30;;;1.70;;
68275;SDS011;55106;51.438;-0.098;2023-01-08T15:56:37;10.98;;;2.10;;
68275;SDS011;55106;51.438;-0.098;2023-01-08T15:59:02;6.22;;;2.53;;
68275;SDS011;55106;51.438;-0.098;2023-01-08T16:01:28;9.03;;;2.83;;
68275;SDS011;55106;51.438;-0.098;2023-01-08T16:03:54;8.32;;;2.30;;
68275;SDS011;55106;51.438;-0.098;2023-01-08T16:06:20;7.80;;;2.43;;
68275;SDS011;55106;51.438;-0.098;2023-01-08T16:08:45;7.33;;;2.13;;
68275;SDS011;55106;51.438;-0.098;2023-01-08T16:11:15;8.48;;;2.10;;
68275;SDS011;55106;51.438;-0.098;2023-01-08T16:13:41;6.10;;;2.28;;
68275;SDS011;55106;51.438;-0.098;2023-01-08T16:16:08;8.77;;;2.63;;
68275;SDS011;55106;51.438;-0.098;2023-01-08T16:21:23;6.25;;;2.05;;